Pagrindinis puslapis
METAR-TAF:

METAR-TAF

Oro uostai :

Båtsfjord, Norvegija

platuma: 70-38N, ilguma: 029-44E, Aukštis: 10 m

Dabartinis oras

Ataskaita buvo paskelbta 6 valandos ir 43 minutes, ne 21:50 UTC
Vėjas 10 kt iš Pietų/Pietryčių
Temperatūra -8°C
Drėgmė 92%
Slėgis 1016 hPa
Matomumas: 2000 m
Išsisklaidę debesys ne aukštis 300 ft
Su prošvaistėmis ne aukštis 1700 ft
sniegas

METAR: ENBS 212150Z 16010KT 2000 -SN SCT003 BKN017 M08/M09 Q1016

Laikas: 05:33 (04:33 UTC)


TAF: trūkstamas

Orai ataskaitas ir orų prognozės (METAR, TAF).

turimą stotys yra geltonos ir raudonos taškus žemėlapyje.

Perkelti pele per norėdami pamatyti stoties vardą.

Tada spustelėkite, norėdami matyti oro stebėjimo ir prognozės.

Norėdami pakeisti žemėlapį: spustelėkite ant žalios mygtukų su juodo kryžiaus žemyn,; žalią mygtuką su brūkšneliu, jei norite nutolinti; arba žalių rodyklių gretimoms žemėlapius.


METAR-TAF: